Time;durP1;ratioP1;P1;durP2;ratioP2;P2;SDS_P1;SDS_P2;PMS_P1;PMS_P2;Temp;Humidity;BMP_temperature;BMP_pressure;BME280_temperature;BME280_humidity;BME280_pressure;Samples;Min_cycle;Max_cycle;Signal;HPM_P1;HPM_P2
2022/06/29 00:02:17;;;;;;;8.10;2.33;;;;;;;26.93;35.10;101425.41;5034573;28;20029;-57
2022/06/29 00:04:44;;;;;;;7.18;1.92;;;;;;;27.02;34.07;101420.81;5034353;28;20155;-57
2022/06/29 00:07:10;;;;;;;6.70;2.40;;;;;;;27.12;35.65;101413.56;5033489;28;20417;-57
2022/06/29 00:09:36;;;;;;;6.78;1.80;;;;;;;27.22;35.18;101410.63;5034650;28;20021;-57
2022/06/29 00:12:03;;;;;;;5.63;2.10;;;;;;;27.26;35.16;101400.63;5031468;28;20469;-57
2022/06/29 00:14:29;;;;;;;9.77;2.55;;;;;;;27.28;34.75;101401.16;5027233;28;20124;-61
2022/06/29 00:16:55;;;;;;;7.35;2.35;;;;;;;27.14;34.79;101405.81;5034220;28;20471;-57
2022/06/29 00:19:21;;;;;;;8.45;2.20;;;;;;;27.13;34.89;101398.69;5033332;28;20119;-56
2022/06/29 00:21:47;;;;;;;8.88;2.58;;;;;;;27.17;33.52;101405.22;5034739;28;20087;-57
2022/06/29 00:24:14;;;;;;;7.03;2.03;;;;;;;27.12;35.34;101402.56;5034063;28;20398;-57
2022/06/29 00:26:40;;;;;;;6.13;1.88;;;;;;;27.15;35.06;101400.03;5034124;28;20040;-57
2022/06/29 00:29:06;;;;;;;6.82;1.75;;;;;;;26.86;34.51;101392.00;5034024;28;20095;-58
2022/06/29 00:31:32;;;;;;;9.00;2.65;;;;;;;26.81;35.14;101390.16;5031430;28;20038;-57
2022/06/29 00:33:58;;;;;;;6.05;1.92;;;;;;;26.63;34.70;101385.53;5033273;28;20071;-57
2022/06/29 00:36:24;;;;;;;4.63;2.08;;;;;;;26.51;35.76;101386.00;5033269;28;20049;-62
2022/06/29 00:38:51;;;;;;;8.65;2.15;;;;;;;26.32;35.80;101382.47;5032116;28;20099;-57
2022/06/29 00:41:18;;;;;;;9.77;2.08;;;;;;;26.24;35.43;101378.47;5031988;28;20045;-54
2022/06/29 00:43:44;;;;;;;6.72;2.47;;;;;;;26.03;35.60;101377.94;5029936;28;20035;-62
2022/06/29 00:46:10;;;;;;;6.57;2.20;;;;;;;25.96;36.70;101377.50;5014857;28;20026;-59
2022/06/29 00:48:36;;;;;;;5.82;2.10;;;;;;;26.14;36.48;101378.59;5033709;28;20104;-58
2022/06/29 00:51:04;;;;;;;9.00;2.40;;;;;;;26.13;36.71;101365.19;5032193;28;20018;-59
2022/06/29 00:53:37;;;;;;;8.80;2.20;;;;;;;25.82;37.30;101371.16;5014657;28;20105;-58
2022/06/29 00:56:10;;;;;;;9.20;2.63;;;;;;;25.94;37.76;101373.44;5013862;28;20725;-58
2022/06/29 00:58:39;;;;;;;8.32;2.50;;;;;;;25.91;36.87;101369.34;5032051;28;20026;-59
2022/06/29 01:01:06;;;;;;;7.15;2.30;;;;;;;25.94;37.36;101363.28;5032673;28;20044;-59
2022/06/29 01:03:33;;;;;;;12.50;2.45;;;;;;;25.82;37.73;101365.66;5033598;28;20060;-58
2022/06/29 01:06:00;;;;;;;8.65;2.30;;;;;;;25.75;36.96;101359.72;5033857;28;20404;-59
2022/06/29 01:08:27;;;;;;;8.13;2.40;;;;;;;25.38;38.41;101361.25;5031594;28;20429;-60
2022/06/29 01:10:53;;;;;;;10.15;3.00;;;;;;;25.15;37.82;101346.47;5033359;28;20034;-59
2022/06/29 01:13:19;;;;;;;9.43;2.35;;;;;;;25.37;38.24;101361.53;5032437;28;20037;-60
2022/06/29 01:15:45;;;;;;;10.07;2.30;;;;;;;25.45;38.15;101350.75;5033421;28;20048;-59
2022/06/29 01:18:11;;;;;;;9.23;2.45;;;;;;;25.47;37.95;101347.72;5032051;28;20030;-58
2022/06/29 01:20:38;;;;;;;7.90;2.47;;;;;;;25.35;38.72;101350.06;5033179;28;20033;-58
2022/06/29 01:23:04;;;;;;;12.63;2.80;;;;;;;24.93;38.55;101344.22;5030885;28;20033;-58
2022/06/29 01:25:30;;;;;;;9.90;2.85;;;;;;;24.86;39.63;101340.16;5033065;28;20481;-59
2022/06/29 01:27:58;;;;;;;8.35;2.47;;;;;;;24.65;40.11;101345.03;5032385;28;20087;-59
2022/06/29 01:30:25;;;;;;;9.02;2.67;;;;;;;24.34;40.51;101347.19;5030334;28;20025;-60
2022/06/29 01:32:51;;;;;;;9.18;3.28;;;;;;;24.32;41.34;101342.03;5031917;28;20029;-59
2022/06/29 01:35:18;;;;;;;33.78;4.80;;;;;;;24.47;42.41;101341.91;5031807;28;20024;-61
2022/06/29 01:37:45;;;;;;;10.90;2.70;;;;;;;24.64;40.47;101337.91;5032671;28;20111;-60
2022/06/29 01:40:11;;;;;;;10.82;3.58;;;;;;;24.24;41.39;101339.88;5030516;28;20056;-60
2022/06/29 01:42:37;;;;;;;11.43;2.25;;;;;;;24.17;41.09;101348.41;5031175;28;20022;-59
2022/06/29 01:45:05;;;;;;;8.55;2.65;;;;;;;24.16;41.28;101351.44;5022215;28;20029;-60
2022/06/29 01:47:31;;;;;;;8.40;2.60;;;;;;;24.23;41.21;101349.19;5015659;28;20033;-60
2022/06/29 01:49:57;;;;;;;6.47;2.40;;;;;;;24.15;41.31;101349.78;5032869;28;20029;-60
2022/06/29 01:52:23;;;;;;;9.45;2.53;;;;;;;23.77;42.04;101341.31;5031347;28;20034;-61
2022/06/29 01:54:49;;;;;;;7.70;2.42;;;;;;;24.25;41.72;101338.78;5031935;28;20059;-60
2022/06/29 01:57:16;;;;;;;8.38;2.65;;;;;;;24.24;40.81;101348.09;5032272;28;20087;-60
2022/06/29 01:59:42;;;;;;;5.88;2.42;;;;;;;24.33;40.86;101338.19;5032494;28;20072;-60
2022/06/29 02:02:08;;;;;;;9.77;2.75;;;;;;;24.30;40.56;101346.13;5032759;28;20028;-60
2022/06/29 02:04:35;;;;;;;7.55;2.15;;;;;;;24.50;40.74;101340.53;5032312;28;20113;-61
2022/06/29 02:07:01;;;;;;;11.73;2.88;;;;;;;24.74;40.16;101337.84;5032307;28;20030;-60
2022/06/29 02:09:27;;;;;;;13.13;2.45;;;;;;;24.79;40.72;101348.72;5031730;28;20041;-60
2022/06/29 02:11:54;;;;;;;8.65;2.30;;;;;;;25.03;39.88;101332.31;5031220;28;20110;-60
2022/06/29 02:14:20;;;;;;;11.27;3.30;;;;;;;24.93;39.92;101338.75;5031916;28;20047;-60
2022/06/29 02:16:46;;;;;;;7.13;3.15;;;;;;;24.76;40.37;101352.03;5027344;28;20022;-60
2022/06/29 02:19:12;;;;;;;8.52;2.88;;;;;;;25.32;39.17;101347.91;5012506;28;20028;-62
2022/06/29 02:21:39;;;;;;;6.40;2.20;;;;;;;25.13;39.45;101350.59;5012472;28;20418;-61
2022/06/29 02:24:05;;;;;;;10.90;3.35;;;;;;;25.45;39.12;101350.75;5012309;28;20109;-62
2022/06/29 02:26:31;;;;;;;8.80;2.90;;;;;;;25.40;39.03;101348.06;5012288;28;20029;-61
2022/06/29 02:28:57;;;;;;;8.15;2.40;;;;;;;25.73;38.92;101351.75;5012276;28;20018;-62
2022/06/29 02:36:53;;;;;;;9.73;2.70;;;;;;;25.28;39.69;101347.69;5031752;28;20056;-61
2022/06/29 02:39:19;;;;;;;6.57;2.53;;;;;;;25.19;39.99;101352.16;5031490;28;20036;-61
2022/06/29 02:41:45;;;;;;;9.38;2.42;;;;;;;24.62;40.95;101348.34;5031553;28;20025;-62
2022/06/29 02:44:11;;;;;;;10.38;3.10;;;;;;;23.95;42.36;101346.09;5031280;28;20025;-61
2022/06/29 02:46:38;;;;;;;9.88;2.97;;;;;;;23.95;42.66;101345.28;5031426;28;20090;-61
2022/06/29 02:49:04;;;;;;;10.27;2.60;;;;;;;23.81;42.88;101344.28;5031536;28;20029;-60
2022/06/29 02:51:30;;;;;;;12.02;3.17;;;;;;;23.55;43.68;101343.56;5031838;28;20026;-60
2022/06/29 02:53:56;;;;;;;13.30;4.18;;;;;;;23.24;44.65;101348.34;5031134;28;20021;-60
2022/06/29 02:56:22;;;;;;;15.23;3.35;;;;;;;23.04;44.93;101344.59;5031772;28;20018;-60
2022/06/29 02:58:49;;;;;;;12.98;3.17;;;;;;;23.16;44.63;101344.28;5031552;28;20065;-60
2022/06/29 03:01:15;;;;;;;14.68;3.70;;;;;;;22.52;45.82;101358.53;5031385;28;20025;-58
2022/06/29 03:03:41;;;;;;;10.75;3.47;;;;;;;22.16;46.48;101358.53;5031297;28;20105;-58
2022/06/29 03:06:07;;;;;;;13.60;3.55;;;;;;;21.96;47.02;101364.72;5031237;28;20022;-58
2022/06/29 03:08:33;;;;;;;13.48;3.42;;;;;;;21.77;47.33;101360.88;5031305;28;20025;-58
2022/06/29 03:11:00;;;;;;;15.05;4.43;;;;;;;21.50;48.14;101361.03;5031515;28;20079;-59
2022/06/29 03:13:26;;;;;;;11.07;3.15;;;;;;;21.24;48.87;101369.06;5030081;28;20025;-59
2022/06/29 03:15:52;;;;;;;13.70;3.33;;;;;;;20.94;49.92;101355.28;5031694;28;20096;-60
2022/06/29 03:18:18;;;;;;;11.23;3.15;;;;;;;20.78;50.32;101355.19;5025728;28;20018;-61
2022/06/29 03:20:45;;;;;;;13.63;3.20;;;;;;;20.56;50.75;101365.34;5031485;28;20393;-60
2022/06/29 03:23:11;;;;;;;14.15;3.05;;;;;;;20.22;51.83;101365.56;5030839;28;20032;-59
2022/06/29 03:25:37;;;;;;;15.55;4.07;;;;;;;19.99;52.34;101363.16;5031539;28;20021;-60
2022/06/29 03:28:03;;;;;;;14.57;3.80;;;;;;;19.66;53.27;101359.53;5031176;28;20075;-60
2022/06/29 03:30:30;;;;;;;14.65;4.18;;;;;;;19.41;53.92;101360.00;5031412;28;20086;-60
2022/06/29 03:32:57;;;;;;;9.85;3.13;;;;;;;19.11;55.13;101362.31;5031056;28;20037;-60
2022/06/29 03:35:23;;;;;;;9.40;3.17;;;;;;;19.01;55.33;101352.16;5031467;28;20105;-61
2022/06/29 03:37:50;;;;;;;11.15;3.42;;;;;;;18.84;55.78;101351.34;5031556;28;20050;-60
2022/06/29 03:40:17;;;;;;;14.57;3.65;;;;;;;18.58;56.86;101358.22;5031629;28;20494;-60
2022/06/29 03:42:43;;;;;;;12.68;3.50;;;;;;;18.48;56.77;101351.56;5031055;28;20060;-60
2022/06/29 03:45:10;;;;;;;11.90;3.58;;;;;;;18.44;56.50;101355.03;5031555;28;20037;-59
2022/06/29 03:47:36;;;;;;;18.27;4.15;;;;;;;18.36;56.76;101358.94;5031155;28;20508;-60
2022/06/29 03:50:02;;;;;;;10.20;3.03;;;;;;;18.36;56.83;101356.25;5031164;28;20508;-60
2022/06/29 03:52:28;;;;;;;14.90;3.88;;;;;;;18.19;57.45;101358.13;5030953;28;20033;-60
2022/06/29 03:54:55;;;;;;;13.88;4.20;;;;;;;18.00;58.25;101346.69;5033020;28;20041;-59
2022/06/29 03:57:21;;;;;;;10.25;3.47;;;;;;;17.79;59.14;101341.94;5023853;23;20057;-59
2022/06/29 03:59:47;;;;;;;12.30;3.60;;;;;;;17.66;59.57;101353.84;5015335;28;20053;-62
2022/06/29 04:02:13;;;;;;;12.88;3.85;;;;;;;17.72;59.58;101354.78;5013770;28;20507;-60
2022/06/29 04:04:40;;;;;;;14.02;3.25;;;;;;;17.62;59.59;101350.78;5013483;28;20077;-60
2022/06/29 04:07:07;;;;;;;13.00;3.47;;;;;;;17.64;59.52;101356.78;5012852;28;20028;-61
2022/06/29 04:09:33;;;;;;;13.95;3.75;;;;;;;17.51;59.83;101357.06;5014977;28;20482;-61
2022/06/29 04:11:59;;;;;;;12.90;4.20;;;;;;;17.52;59.93;101355.19;5014950;28;20057;-61
2022/06/29 04:14:27;;;;;;;12.25;4.13;;;;;;;17.41;60.25;101359.56;5014274;28;20036;-61
2022/06/29 04:16:55;;;;;;;14.45;3.70;;;;;;;17.34;60.63;101369.69;4997177;28;20403;-61
2022/06/29 04:19:22;;;;;;;14.52;3.50;;;;;;;17.25;60.82;101371.09;5014359;28;20037;-60
2022/06/29 04:21:48;;;;;;;15.35;3.55;;;;;;;17.23;61.23;101365.94;5014792;28;20045;-60
2022/06/29 04:24:15;;;;;;;11.20;3.33;;;;;;;17.25;60.66;101363.81;5014581;28;20033;-59
2022/06/29 04:26:42;;;;;;;18.45;4.03;;;;;;;17.17;61.03;101368.78;5014357;28;20129;-59
2022/06/29 04:29:09;;;;;;;18.55;4.13;;;;;;;17.05;61.96;101371.50;5014431;28;20030;-60
2022/06/29 04:31:35;;;;;;;14.38;3.75;;;;;;;17.05;61.46;101366.09;5014199;28;20476;-60
2022/06/29 04:34:02;;;;;;;12.02;3.60;;;;;;;17.06;61.95;101368.53;5014050;28;20041;-60
2022/06/29 04:36:29;;;;;;;12.00;3.60;;;;;;;16.91;62.23;101365.50;5014409;28;20026;-60
2022/06/29 04:38:55;;;;;;;14.07;3.20;;;;;;;16.92;62.32;101367.13;4996872;28;20034;-60
2022/06/29 04:41:23;;;;;;;11.77;4.43;;;;;;;16.78;62.51;101371.13;5014616;28;20061;-60
2022/06/29 04:43:50;;;;;;;10.40;3.10;;;;;;;16.69;62.75;101383.31;5013988;28;20516;-60
2022/06/29 04:46:24;;;;;;;14.45;4.13;;;;;;;16.56;63.33;101377.06;5014144;28;20029;-60
2022/06/29 04:48:56;;;;;;;13.65;3.55;;;;;;;16.51;63.55;101382.34;5013425;28;20068;-60
2022/06/29 04:51:23;;;;;;;13.90;3.83;;;;;;;16.53;63.76;101388.31;5013584;28;20178;-60
2022/06/29 04:53:54;;;;;;;12.02;3.70;;;;;;;16.36;63.88;101396.28;5013551;28;20516;-59
2022/06/29 04:56:22;;;;;;;13.95;4.43;;;;;;;16.26;64.54;101396.00;5014022;28;20165;-59
2022/06/29 04:58:50;;;;;;;15.23;3.65;;;;;;;16.17;64.52;101401.97;5013963;28;20033;-59
2022/06/29 05:01:18;;;;;;;14.13;3.88;;;;;;;16.15;64.96;101404.06;5013797;28;20030;-60
2022/06/29 05:03:44;;;;;;;14.20;3.92;;;;;;;16.16;65.01;101405.72;5013309;28;20034;-60
2022/06/29 05:06:11;;;;;;;12.95;3.83;;;;;;;16.18;64.49;101411.72;5013099;28;20018;-60
2022/06/29 05:08:37;;;;;;;14.13;3.83;;;;;;;16.07;65.04;101406.03;5013736;28;20049;-59
2022/06/29 05:11:03;;;;;;;12.85;3.92;;;;;;;16.12;65.05;101407.25;5013798;28;20033;-59
2022/06/29 05:13:29;;;;;;;13.57;3.83;;;;;;;16.03;65.22;101407.53;5013509;28;20030;-59
2022/06/29 05:15:55;;;;;;;12.57;4.18;;;;;;;16.06;65.49;101417.09;5013766;28;20018;-58
2022/06/29 05:18:22;;;;;;;18.38;3.50;;;;;;;15.90;66.02;101413.13;5013238;28;20029;-59
2022/06/29 05:20:49;;;;;;;13.80;3.88;;;;;;;15.94;65.94;101424.31;5013046;28;20026;-58
2022/06/29 05:23:15;;;;;;;10.52;4.18;;;;;;;15.93;66.31;101423.47;5013067;28;20034;-58
2022/06/29 05:25:41;;;;;;;18.65;3.80;;;;;;;15.91;66.13;101422.88;5013686;28;20386;-60
2022/06/29 05:28:08;;;;;;;15.85;4.15;;;;;;;15.82;66.32;101424.22;4993798;28;20026;-59
2022/06/29 05:30:35;;;;;;;16.63;4.10;;;;;;;15.70;67.06;101415.25;5009227;28;20034;-59
2022/06/29 05:33:01;;;;;;;16.33;4.38;;;;;;;15.53;67.57;101421.22;5010285;28;20466;-60
2022/06/29 05:35:29;;;;;;;18.33;4.43;;;;;;;15.33;68.39;101415.22;5013212;28;20026;-59
2022/06/29 05:37:56;;;;;;;16.63;4.25;;;;;;;15.36;68.38;101428.25;5010665;28;20061;-59
2022/06/29 05:40:22;;;;;;;15.35;4.28;;;;;;;15.28;68.48;101428.56;5011670;28;20422;-60
2022/06/29 05:42:48;;;;;;;12.23;4.45;;;;;;;15.38;68.42;101423.47;5009687;28;20029;-60
2022/06/29 05:45:15;;;;;;;21.30;4.88;;;;;;;15.34;68.32;101416.88;5013096;28;20033;-60
2022/06/29 05:47:42;;;;;;;19.17;4.80;;;;;;;15.20;68.71;101418.03;5010250;28;20109;-59
2022/06/29 05:50:10;;;;;;;15.63;3.90;;;;;;;15.21;69.08;101422.38;5012775;28;20057;-59
2022/06/29 05:52:37;;;;;;;14.20;4.18;;;;;;;15.18;69.14;101420.97;4995499;28;20030;-59
2022/06/29 05:55:05;;;;;;;16.42;4.40;;;;;;;15.09;69.50;101419.59;5012851;28;20030;-59
2022/06/29 05:57:33;;;;;;;13.73;3.88;;;;;;;15.08;69.56;101417.94;5012786;28;20144;-59
2022/06/29 06:00:03;;;;;;;19.15;3.88;;;;;;;15.09;69.56;101421.47;5012831;28;20097;-59
2022/06/29 06:02:30;;;;;;;15.52;4.95;;;;;;;14.95;70.10;101421.59;5012275;28;20026;-59
2022/06/29 06:04:56;;;;;;;16.75;4.55;;;;;;;14.86;70.46;101422.91;5010870;28;20026;-59
2022/06/29 06:07:22;;;;;;;17.30;5.03;;;;;;;14.76;70.85;101427.97;5012866;28;20026;-59
2022/06/29 06:09:49;;;;;;;17.17;4.63;;;;;;;14.85;70.46;101423.94;5012105;28;20057;-59
2022/06/29 06:12:15;;;;;;;19.90;4.40;;;;;;;14.89;70.57;101419.78;5011744;28;20042;-59
2022/06/29 06:14:41;;;;;;;18.85;4.43;;;;;;;14.83;70.92;101422.53;4995225;28;20359;-59
2022/06/29 06:17:07;;;;;;;15.20;4.32;;;;;;;14.78;71.21;101424.00;5010745;28;20470;-58
2022/06/29 06:19:34;;;;;;;21.85;5.22;;;;;;;14.79;70.67;101422.13;5012511;28;20037;-61
2022/06/29 06:22:00;;;;;;;18.27;4.75;;;;;;;14.80;70.52;101423.78;4995862;28;20105;-58
2022/06/29 06:24:26;;;;;;;20.98;4.93;;;;;;;14.79;70.91;101417.56;5012103;28;20091;-59
2022/06/29 06:26:52;;;;;;;16.80;5.28;;;;;;;14.79;71.06;101422.13;5011338;28;20116;-59
2022/06/29 06:29:19;;;;;;;20.00;4.50;;;;;;;14.76;71.71;101414.47;5009771;28;20061;-58
2022/06/29 06:31:46;;;;;;;19.73;4.90;;;;;;;14.74;71.90;101411.19;5012448;28;20490;-59
2022/06/29 06:34:13;;;;;;;23.35;5.10;;;;;;;14.70;72.22;101415.34;5010941;28;20136;-59
2022/06/29 06:36:40;;;;;;;19.88;4.90;;;;;;;14.75;72.09;101418.22;4993707;28;20688;-59
2022/06/29 06:39:06;;;;;;;23.65;5.47;;;;;;;14.76;71.84;101414.47;5012254;28;20021;-58
2022/06/29 06:41:32;;;;;;;14.95;4.60;;;;;;;14.79;71.60;101422.13;4993290;28;20022;-59
2022/06/29 06:44:00;;;;;;;16.05;4.47;;;;;;;14.78;71.29;101412.41;4992456;28;20407;-58
2022/06/29 06:46:28;;;;;;;20.27;4.88;;;;;;;14.70;71.66;101418.06;5011376;28;20026;-57
2022/06/29 06:48:54;;;;;;;21.02;4.72;;;;;;;14.68;71.83;101418.28;5011557;28;20112;-58
2022/06/29 06:51:22;;;;;;;20.27;5.10;;;;;;;14.72;72.33;101418.69;5011674;28;20029;-58
2022/06/29 06:53:49;;;;;;;15.32;4.28;;;;;;;14.61;72.39;101416.69;5011647;28;20025;-58
2022/06/29 06:56:15;;;;;;;27.17;5.85;;;;;;;14.67;72.18;101419.34;5011722;28;20050;-58
2022/06/29 06:58:42;;;;;;;20.38;5.40;;;;;;;14.74;71.96;101416.59;5011492;28;20466;-58
2022/06/29 07:01:11;;;;;;;20.73;5.05;;;;;;;14.71;72.18;101408.91;5011964;28;20060;-58
2022/06/29 07:03:38;;;;;;;19.88;4.63;;;;;;;14.75;72.21;101410.13;5011237;28;20061;-58
2022/06/29 07:06:09;;;;;;;19.77;5.38;;;;;;;14.51;73.55;101403.69;5011848;28;20030;-59
2022/06/29 07:08:37;;;;;;;19.17;4.78;;;;;;;14.55;73.13;101410.31;5011789;28;20471;-58
2022/06/29 07:11:05;;;;;;;15.88;5.20;;;;;;;14.42;73.51;101415.72;5011855;28;20033;-58
2022/06/29 07:13:35;;;;;;;20.95;5.70;;;;;;;14.56;72.92;101413.81;5011266;28;20026;-58
2022/06/29 07:16:05;;;;;;;19.65;6.20;;;;;;;14.56;72.59;101421.91;4994079;28;20402;-59
2022/06/29 07:18:33;;;;;;;16.73;5.03;;;;;;;14.56;72.69;101411.13;5011919;28;20045;-59
2022/06/29 07:21:00;;;;;;;17.77;5.25;;;;;;;14.42;73.27;101421.13;5004731;28;20061;-59
2022/06/29 07:23:30;;;;;;;21.67;5.22;;;;;;;14.44;73.56;101424.44;5011438;28;20026;-59
2022/06/29 07:25:56;;;;;;;18.23;4.78;;;;;;;14.45;73.43;101416.13;5011707;28;20145;-60
2022/06/29 07:28:23;;;;;;;20.33;4.82;;;;;;;14.41;73.39;101409.53;5012137;28;20030;-59
2022/06/29 07:30:49;;;;;;;16.23;5.20;;;;;;;14.32;73.91;101407.31;5015579;28;20382;-59
2022/06/29 07:33:16;;;;;;;17.17;5.38;;;;;;;14.19;74.49;101410.91;5015360;28;20026;-59
2022/06/29 07:35:42;;;;;;;18.27;5.40;;;;;;;14.24;74.21;101417.28;5015503;28;20363;-59
2022/06/29 07:38:10;;;;;;;19.50;5.20;;;;;;;14.27;73.94;101402.59;5015221;28;20491;-59
2022/06/29 07:40:36;;;;;;;25.88;6.05;;;;;;;14.36;73.62;101409.34;5015330;28;20030;-59
2022/06/29 07:43:02;;;;;;;15.60;4.90;;;;;;;14.30;73.90;101401.31;5014961;28;20049;-59
2022/06/29 07:45:29;;;;;;;19.08;5.03;;;;;;;14.10;74.46;101407.66;5015239;28;20153;-59
2022/06/29 07:47:55;;;;;;;19.80;5.15;;;;;;;14.17;73.75;101404.94;5015240;28;20064;-59
2022/06/29 07:50:21;;;;;;;22.08;5.43;;;;;;;14.17;73.78;101411.13;5015220;28;20036;-59
2022/06/29 07:52:47;;;;;;;18.92;5.03;;;;;;;14.37;72.99;101421.78;5006150;28;20026;-58
2022/06/29 07:55:13;;;;;;;18.15;4.55;;;;;;;14.19;73.58;101417.13;5010019;28;20022;-59
2022/06/29 07:57:40;;;;;;;16.70;5.10;;;;;;;14.32;73.11;101415.38;5014755;28;20038;-58
2022/06/29 08:00:07;;;;;;;18.73;4.70;;;;;;;14.36;72.82;101420.13;5014524;28;20060;-58
2022/06/29 08:02:33;;;;;;;14.95;4.30;;;;;;;14.37;72.70;101402.91;5014708;28;20393;-59
2022/06/29 08:05:01;;;;;;;17.20;5.20;;;;;;;14.22;73.38;101405.94;5015095;28;20030;-58
2022/06/29 08:07:28;;;;;;;20.48;5.63;;;;;;;14.25;73.53;101404.66;5015254;28;20092;-58
2022/06/29 08:09:54;;;;;;;13.20;4.95;;;;;;;14.21;73.58;101400.75;5015052;28;20065;-58
2022/06/29 08:12:21;;;;;;;24.95;5.95;;;;;;;14.23;73.58;101412.97;5013976;28;20034;-59
2022/06/29 08:14:47;;;;;;;16.98;4.78;;;;;;;14.19;73.79;101408.22;4997452;28;20026;-59
2022/06/29 08:17:14;;;;;;;20.50;5.13;;;;;;;14.23;73.63;101410.28;5014707;28;20101;-59
2022/06/29 08:19:40;;;;;;;18.13;5.80;;;;;;;14.13;74.16;101407.22;5014670;28;20030;-59
2022/06/29 08:22:06;;;;;;;23.88;5.07;;;;;;;14.16;73.98;101395.22;5014183;28;20037;-59
2022/06/29 08:24:32;;;;;;;20.50;5.72;;;;;;;13.92;75.11;101394.06;5014780;28;20049;-60
2022/06/29 08:26:59;;;;;;;23.95;5.95;;;;;;;13.91;75.12;101398.63;4996783;28;20034;-59
2022/06/29 08:29:25;;;;;;;25.35;6.18;;;;;;;13.86;75.49;101409.19;5014271;28;20554;-59
2022/06/29 08:31:51;;;;;;;19.45;5.85;;;;;;;13.92;74.95;101411.03;5014385;28;20461;-59
2022/06/29 08:34:23;;;;;;;22.70;6.35;;;;;;;13.81;75.63;101414.41;5014236;28;20030;-59
2022/06/29 08:36:49;;;;;;;25.10;5.80;;;;;;;13.83;75.55;101401.56;5014248;28;20030;-57
2022/06/29 08:39:17;;;;;;;15.45;4.97;;;;;;;13.96;74.57;101406.88;5014251;28;20026;-57
2022/06/29 08:41:43;;;;;;;21.10;5.82;;;;;;;14.02;73.99;101404.38;5013134;28;20053;-57
2022/06/29 08:44:10;;;;;;;20.42;5.30;;;;;;;13.89;74.69;101403.41;5014122;28;20080;-57
2022/06/29 08:46:36;;;;;;;20.98;5.95;;;;;;;13.92;74.46;101408.34;4996236;28;20034;-57
2022/06/29 08:49:03;;;;;;;25.08;6.93;;;;;;;13.93;74.16;101407.31;5012238;28;20075;-57
2022/06/29 08:51:34;;;;;;;17.27;5.05;;;;;;;13.85;74.73;101410.25;5011293;28;20367;-57
2022/06/29 08:54:06;;;;;;;24.63;5.72;;;;;;;13.84;74.79;101402.41;5002638;28;20052;-57
2022/06/29 08:56:34;;;;;;;22.40;6.20;;;;;;;13.74;75.30;101410.91;5012064;28;20045;-57
2022/06/29 08:59:03;;;;;;;28.05;6.45;;;;;;;13.76;74.84;101405.31;5012914;28;20432;-57
2022/06/29 09:01:31;;;;;;;16.42;5.35;;;;;;;13.72;75.15;101411.13;5010109;28;20029;-57
2022/06/29 09:03:57;;;;;;;23.80;6.53;;;;;;;13.81;74.88;101403.63;5012538;28;20164;-57
2022/06/29 09:06:23;;;;;;;24.27;6.80;;;;;;;13.81;74.87;101400.13;5011239;28;20075;-57
2022/06/29 09:08:51;;;;;;;24.67;5.80;;;;;;;13.73;75.32;101411.97;5012206;28;20116;-57
2022/06/29 09:11:25;;;;;;;19.33;5.90;;;;;;;13.55;76.02;101404.59;5012595;28;20494;-57
2022/06/29 09:14:17;;;;;;;26.00;6.55;;;;;;;13.72;75.42;101405.75;5011198;28;20049;-57
2022/06/29 09:16:55;;;;;;;22.10;6.30;;;;;;;13.68;75.43;101401.84;5013425;28;20026;-57
2022/06/29 09:19:25;;;;;;;26.33;5.85;;;;;;;13.56;75.80;101408.09;5011982;28;20486;-57
2022/06/29 09:21:54;;;;;;;25.58;6.38;;;;;;;13.64;75.35;101405.97;5013333;28;20077;-57
2022/06/29 09:24:25;;;;;;;19.02;6.30;;;;;;;13.58;75.76;101401.44;5009181;28;20104;-57
2022/06/29 09:27:00;;;;;;;24.33;6.15;;;;;;;13.62;75.66;101401.88;5011859;28;20486;-57
2022/06/29 09:29:29;;;;;;;20.73;6.07;;;;;;;13.69;75.54;101397.28;5013309;28;20491;-57
2022/06/29 09:32:01;;;;;;;31.17;6.97;;;;;;;13.50;76.29;101396.31;5012474;28;20374;-57
2022/06/29 09:34:46;;;;;;;28.15;6.43;;;;;;;13.59;75.78;101395.03;5011938;28;20607;-57
2022/06/29 09:37:21;;;;;;;20.48;6.75;;;;;;;13.78;75.11;101396.00;5009556;28;20026;-57
2022/06/29 09:39:52;;;;;;;25.10;6.65;;;;;;;13.61;75.68;101400.22;5011560;28;20418;-57
2022/06/29 09:42:27;;;;;;;23.05;5.88;;;;;;;13.70;75.32;101385.47;5011484;28;20038;-57
2022/06/29 09:44:54;;;;;;;25.15;5.60;;;;;;;13.68;75.33;101382.19;4991082;28;20038;-57
2022/06/29 09:47:22;;;;;;;27.75;5.80;;;;;;;13.51;75.77;101389.06;5002824;28;20482;-57
2022/06/29 09:49:59;;;;;;;19.65;5.72;;;;;;;13.52;75.83;101388.84;5011519;28;20040;-57
2022/06/29 09:52:27;;;;;;;23.45;6.53;;;;;;;13.43;76.24;101390.94;5032030;23;20053;-57
2022/06/29 09:55:00;;;;;;;25.65;6.07;;;;;;;13.53;75.90;101395.06;5052288;28;20036;-57
2022/06/29 09:57:31;;;;;;;25.55;6.05;;;;;;;13.45;76.28;101394.25;5051355;28;20052;-57
2022/06/29 10:02:51;;;;;;;22.35;7.05;;;;;;;13.39;76.59;101394.28;5051259;28;20035;-57
2022/06/29 10:05:20;;;;;;;19.45;5.93;;;;;;;13.34;76.75;101397.59;5050987;28;20546;-57
2022/06/29 10:07:54;;;;;;;26.42;5.28;;;;;;;13.44;76.84;101387.25;5050018;28;20039;-57
2022/06/29 10:10:25;;;;;;;24.10;6.22;;;;;;;13.41;76.83;101384.97;5050823;28;20113;-57
2022/06/29 10:16:02;;;;;;;22.70;5.97;;;;;;;13.56;76.29;101384.72;5051204;28;20025;-57
2022/06/29 10:18:55;;;;;;;23.55;7.13;;;;;;;13.48;76.77;101384.94;5050004;28;20020;-57
2022/06/29 10:21:27;;;;;;;21.05;6.30;;;;;;;13.49;76.80;101381.19;5050825;28;20036;-57
2022/06/29 10:23:57;;;;;;;18.13;5.45;;;;;;;13.56;76.45;101384.72;5044419;28;20401;-57
2022/06/29 10:29:20;;;;;;;22.05;5.80;;;;;;;13.50;76.55;101390.94;5052056;28;20558;-57
2022/06/29 10:31:53;;;;;;;16.50;5.65;;;;;;;13.52;76.54;101396.91;5050674;28;20033;-57
2022/06/29 10:34:34;;;;;;;15.48;5.40;;;;;;;13.53;76.62;101387.81;5050810;28;20421;-57
2022/06/29 10:37:09;;;;;;;18.98;5.35;;;;;;;13.57;76.25;101389.03;5049679;28;20035;-57
2022/06/29 10:39:50;;;;;;;25.33;5.47;;;;;;;13.61;75.90;101392.97;5049786;28;20543;-57
2022/06/29 10:45:18;;;;;;;24.25;5.97;;;;;;;13.42;76.95;101394.66;5051435;28;20090;-57
2022/06/29 10:47:58;;;;;;;18.98;5.32;;;;;;;13.31;77.31;101399.88;5050605;28;20036;-57
2022/06/29 10:50:25;;;;;;;20.17;6.10;;;;;;;13.25;77.66;101392.66;5051301;28;20443;-57
2022/06/29 10:52:54;;;;;;;20.98;5.93;;;;;;;13.23;77.83;101384.81;5049830;28;20052;-57
2022/06/29 10:55:21;;;;;;;25.65;5.50;;;;;;;13.22;77.95;101398.47;5050502;28;20048;-57
2022/06/29 10:57:48;;;;;;;24.63;6.78;;;;;;;13.27;77.75;101395.94;5050647;28;20587;-57
2022/06/29 11:00:30;;;;;;;26.70;5.88;;;;;;;13.25;77.94;101392.66;5049173;28;20042;-59
2022/06/29 11:02:56;;;;;;;22.90;5.72;;;;;;;13.30;77.88;101399.06;5038251;28;20059;-59
2022/06/29 11:05:23;;;;;;;16.88;5.80;;;;;;;13.23;78.31;101398.25;5049955;28;20053;-59
2022/06/29 11:13:26;;;;;;;27.60;6.45;;;;;;;13.25;78.03;101398.03;5049900;28;20378;-59
2022/06/29 11:15:58;;;;;;;21.42;6.30;;;;;;;13.20;78.07;101395.94;5050427;28;20020;-58
2022/06/29 11:18:32;;;;;;;20.50;6.63;;;;;;;13.30;77.79;101393.66;5050192;28;20060;-59
2022/06/29 11:21:03;;;;;;;18.60;6.00;;;;;;;13.26;77.79;101392.44;5050255;28;20064;-59
2022/06/29 11:23:32;;;;;;;21.90;6.35;;;;;;;13.35;77.82;101399.25;5038751;28;20033;-59
2022/06/29 11:25:59;;;;;;;17.92;5.38;;;;;;;13.32;77.89;101390.75;5039243;28;20036;-59
2022/06/29 11:28:28;;;;;;;20.73;5.95;;;;;;;13.18;78.01;101403.38;5051167;28;20020;-59
2022/06/29 11:31:02;;;;;;;21.80;5.88;;;;;;;13.16;78.00;101400.09;5051380;28;20770;-59
2022/06/29 11:33:31;;;;;;;28.15;6.57;;;;;;;13.18;77.97;101398.00;5051026;28;20043;-59
2022/06/29 11:36:02;;;;;;;22.38;6.50;;;;;;;13.15;77.96;101393.03;5050588;28;20033;-59
2022/06/29 11:38:30;;;;;;;16.23;5.60;;;;;;;13.17;77.69;101402.56;5051536;28;20495;-59
2022/06/29 11:40:56;;;;;;;15.93;5.97;;;;;;;13.11;78.15;101405.28;5050726;28;20500;-59
2022/06/29 11:43:23;;;;;;;19.92;6.90;;;;;;;13.23;77.74;101402.78;5050873;28;20032;-59
2022/06/29 11:45:56;;;;;;;21.38;6.18;;;;;;;13.35;77.39;101395.72;5050878;28;20112;-59